Time;durP1;ratioP1;P1;durP2;ratioP2;P2;SDS_P1;SDS_P2;PMS_P1;PMS_P2;Temp;Humidity;BMP_temperature;BMP_pressure;BME280_temperature;BME280_humidity;BME280_pressure;Samples;Min_cycle;Max_cycle;Signal;HPM_P1;HPM_P2
2022/05/12 00:01:10;;;;;;;5.07;4.00;;;22.00;1.00;;;;;;5051930;28;20090;-63
2022/05/12 00:03:36;;;;;;;6.78;4.50;;;21.90;1.00;;;;;;5052121;28;20083;-63
2022/05/12 00:06:02;;;;;;;8.07;3.92;;;22.00;1.00;;;;;;5053586;28;20442;-63
2022/05/12 00:08:28;;;;;;;7.97;4.03;;;22.00;1.00;;;;;;5050899;28;20032;-63
2022/05/12 00:10:54;;;;;;;4.70;4.20;;;21.90;1.00;;;;;;5050746;28;20132;-63
2022/05/12 00:13:20;;;;;;;4.88;3.65;;;22.00;1.00;;;;;;5049895;28;20553;-63
2022/05/12 00:15:48;;;;;;;5.68;3.72;;;21.80;1.00;;;;;;5053779;28;20513;-63
2022/05/12 00:18:14;;;;;;;4.60;3.75;;;21.80;1.00;;;;;;5058028;28;20025;-63
2022/05/12 00:20:41;;;;;;;5.22;4.22;;;22.00;1.00;;;;;;5051754;28;20048;-63
2022/05/12 00:23:15;;;;;;;6.15;4.13;;;21.90;1.00;;;;;;5049505;28;20029;-63
2022/05/12 00:25:44;;;;;;;5.35;3.92;;;21.90;1.00;;;;;;5052590;28;20047;-63
2022/05/12 00:28:11;;;;;;;5.07;4.10;;;21.90;1.00;;;;;;5052575;28;20021;-63
2022/05/12 00:30:37;;;;;;;4.85;4.32;;;21.80;1.00;;;;;;5054111;28;20052;-62
2022/05/12 00:33:04;;;;;;;8.18;4.20;;;21.80;1.00;;;;;;5048606;28;20024;-63
2022/05/12 00:35:30;;;;;;;6.25;3.97;;;21.80;1.00;;;;;;5053882;28;20040;-62
2022/05/12 00:37:56;;;;;;;5.30;4.10;;;21.70;1.00;;;;;;5052669;28;20029;-63
2022/05/12 00:40:21;;;;;;;5.13;3.70;;;21.80;1.00;;;;;;5053255;28;20116;-63
2022/05/12 00:42:59;;;;;;;6.47;3.70;;;21.70;1.00;;;;;;5052465;28;20178;-63
2022/05/12 00:45:27;;;;;;;5.30;3.92;;;21.80;1.00;;;;;;5052461;28;20025;-63
2022/05/12 00:47:52;;;;;;;4.50;4.10;;;21.80;1.00;;;;;;5052030;28;20041;-62
2022/05/12 00:50:21;;;;;;;5.05;3.65;;;21.80;1.00;;;;;;5052055;28;20040;-63
2022/05/12 00:52:47;;;;;;;4.05;3.72;;;21.80;1.00;;;;;;5051903;28;20032;-63
2022/05/12 00:55:16;;;;;;;5.50;3.83;;;21.80;1.00;;;;;;5053292;28;20032;-64
2022/05/12 00:57:51;;;;;;;3.88;3.45;;;21.70;1.00;;;;;;5052482;28;20117;-63
2022/05/12 01:00:17;;;;;;;;;;;21.60;1.00;;;;;;5053647;28;20020;-63
2022/05/12 01:02:46;;;;;;;4.75;4.07;;;21.60;1.00;;;;;;5051896;28;19912;-62
2022/05/12 01:05:12;;;;;;;5.57;4.05;;;21.70;1.00;;;;;;5053040;28;20029;-63
2022/05/12 01:07:38;;;;;;;6.82;3.80;;;21.70;1.00;;;;;;5052643;28;20043;-63
2022/05/12 01:10:05;;;;;;;6.00;3.90;;;21.80;1.00;;;;;;5051981;28;20025;-63
2022/05/12 01:12:32;;;;;;;6.90;4.28;;;21.70;1.00;;;;;;5051697;28;20029;-63
2022/05/12 01:14:58;;;;;;;6.30;4.18;;;21.70;1.00;;;;;;5067997;28;20020;-63
2022/05/12 01:17:24;;;;;;;6.18;4.22;;;21.70;1.00;;;;;;5051906;28;20040;-64
2022/05/12 01:19:51;;;;;;;7.00;4.32;;;21.60;1.00;;;;;;5051846;28;20025;-63
2022/05/12 01:22:35;;;;;;;6.88;4.25;;;21.70;1.00;;;;;;5051154;28;20037;-63
2022/05/12 01:25:14;;;;;;;5.15;4.05;;;21.60;1.00;;;;;;5051209;28;20043;-63
2022/05/12 01:27:42;;;;;;;6.80;4.55;;;21.50;1.00;;;;;;5051441;28;20093;-64
2022/05/12 01:30:09;;;;;;;8.52;4.80;;;21.50;1.00;;;;;;5051701;28;20391;-63
2022/05/12 01:32:35;;;;;;;8.00;4.57;;;21.40;1.00;;;;;;5050642;28;20116;-63
2022/05/12 01:35:00;;;;;;;7.97;4.78;;;21.40;1.00;;;;;;5051890;28;20836;-63
2022/05/12 01:37:26;;;;;;;5.47;4.30;;;21.40;1.00;;;;;;5051672;28;20033;-63
2022/05/12 01:39:52;;;;;;;5.65;3.95;;;21.40;1.00;;;;;;5041717;28;20087;-63
2022/05/12 01:42:18;;;;;;;6.32;4.80;;;21.50;1.00;;;;;;5035234;28;20028;-64
2022/05/12 01:44:44;;;;;;;7.45;5.03;;;21.40;1.00;;;;;;5049925;28;20044;-63
2022/05/12 01:47:11;;;;;;;6.00;4.65;;;21.50;1.00;;;;;;5052150;28;20453;-63
2022/05/12 01:49:37;;;;;;;7.78;4.93;;;21.40;1.00;;;;;;5050999;28;20386;-63
2022/05/12 01:52:04;;;;;;;6.32;4.60;;;21.30;1.00;;;;;;5051875;28;20035;-63
2022/05/12 01:54:30;;;;;;;6.05;4.45;;;21.30;1.00;;;;;;5051358;28;20364;-64
2022/05/12 01:56:57;;;;;;;8.02;4.82;;;21.20;1.00;;;;;;5052135;28;20449;-63
2022/05/12 01:59:24;;;;;;;6.90;5.07;;;21.30;1.00;;;;;;5049203;28;20401;-63
2022/05/12 02:01:50;;;;;;;7.13;4.45;;;21.20;1.00;;;;;;5050047;28;20139;-63
2022/05/12 02:04:16;;;;;;;7.30;4.93;;;21.10;1.00;;;;;;5046423;28;20036;-63
2022/05/12 02:06:42;;;;;;;7.18;4.70;;;21.20;1.00;;;;;;5052077;28;20111;-63
2022/05/12 02:09:08;;;;;;;6.22;4.82;;;21.20;1.00;;;;;;5050769;28;20113;-63
2022/05/12 02:11:34;;;;;;;8.60;5.43;;;21.20;1.00;;;;;;5050730;28;20083;-63
2022/05/12 02:14:01;;;;;;;6.47;5.18;;;20.90;1.00;;;;;;5052019;28;20374;-63
2022/05/12 02:16:27;;;;;;;5.50;5.00;;;21.10;1.00;;;;;;5049818;28;20386;-63
2022/05/12 02:18:53;;;;;;;6.35;5.30;;;21.20;1.00;;;;;;5051329;28;20017;-62
2022/05/12 02:21:19;;;;;;;6.63;5.55;;;21.20;1.00;;;;;;5050411;28;20056;-63
2022/05/12 02:23:45;;;;;;;8.48;5.72;;;21.20;1.00;;;;;;5051777;28;20502;-63
2022/05/12 02:26:11;;;;;;;8.98;5.53;;;21.00;1.00;;;;;;5049231;28;20037;-63
2022/05/12 02:28:37;;;;;;;5.50;4.93;;;21.00;1.00;;;;;;5035838;28;20101;-64
2022/05/12 02:31:03;;;;;;;6.88;4.93;;;21.00;1.00;;;;;;5042535;28;20387;-63
2022/05/12 02:33:29;;;;;;;8.40;5.28;;;21.00;1.00;;;;;;5050286;28;20108;-63
2022/05/12 02:36:18;;;;;;;6.18;5.60;;;21.00;1.00;;;;;;5049230;28;20028;-63
2022/05/12 02:38:43;;;;;;;12.60;6.35;;;21.00;1.00;;;;;;5049181;28;20044;-63
2022/05/12 02:41:09;;;;;;;7.72;5.70;;;20.90;1.00;;;;;;5048565;28;20044;-63
2022/05/12 02:43:35;;;;;;;9.77;4.93;;;20.90;1.00;;;;;;5050701;28;20463;-63
2022/05/12 02:46:07;;;;;;;8.15;5.47;;;20.90;1.00;;;;;;5047423;28;20032;-63
2022/05/12 02:48:36;;;;;;;7.13;5.43;;;20.90;1.00;;;;;;5050303;28;20036;-63
2022/05/12 02:51:03;;;;;;;7.25;5.68;;;21.00;1.00;;;;;;5049390;28;20052;-63
2022/05/12 02:53:29;;;;;;;7.38;5.93;;;20.80;1.00;;;;;;5049864;28;20029;-63
2022/05/12 02:55:56;;;;;;;7.85;5.07;;;20.80;1.00;;;;;;5066873;28;20474;-64
2022/05/12 02:58:22;;;;;;;8.40;5.72;;;20.80;1.00;;;;;;5055622;28;20049;-64
2022/05/12 03:00:48;;;;;;;7.43;5.07;;;20.70;1.00;;;;;;5055170;28;20394;-64
2022/05/12 03:03:13;;;;;;;8.65;4.97;;;20.70;1.00;;;;;;5054426;28;20021;-64
2022/05/12 03:05:40;;;;;;;6.68;5.47;;;20.80;1.00;;;;;;5046465;28;20125;-63
2022/05/12 03:08:07;;;;;;;7.80;5.68;;;20.80;1.00;;;;;;5052626;28;20032;-63
2022/05/12 03:10:34;;;;;;;5.80;5.15;;;20.70;1.00;;;;;;5055327;28;20035;-63
2022/05/12 03:12:59;;;;;;;8.43;6.00;;;20.80;1.00;;;;;;5054525;28;20037;-63
2022/05/12 03:15:25;;;;;;;10.55;5.90;;;20.80;1.00;;;;;;5055039;28;20025;-64
2022/05/12 03:17:51;;;;;;;8.57;5.88;;;20.70;1.00;;;;;;5054136;28;20382;-63
2022/05/12 03:20:20;;;;;;;6.68;5.90;;;20.50;1.00;;;;;;5055058;28;20037;-63
2022/05/12 03:22:47;;;;;;;9.55;5.85;;;20.50;1.00;;;;;;5054035;28;20055;-63
2022/05/12 03:25:14;;;;;;;8.23;5.70;;;20.70;1.00;;;;;;5054903;28;20021;-64
2022/05/12 03:27:40;;;;;;;8.25;6.53;;;20.60;1.00;;;;;;5054260;28;20029;-63
2022/05/12 03:30:10;;;;;;;7.50;6.55;;;20.50;1.00;;;;;;5054938;28;20025;-64
2022/05/12 03:32:36;;;;;;;11.50;7.15;;;20.50;1.00;;;;;;5054160;28;20478;-64
2022/05/12 03:35:03;;;;;;;8.68;6.75;;;20.50;1.00;;;;;;5039598;28;20028;-63
2022/05/12 03:37:29;;;;;;;10.50;6.18;;;20.50;1.00;;;;;;5052295;28;20116;-62
2022/05/12 03:39:54;;;;;;;8.02;6.78;;;20.50;1.00;;;;;;5053594;28;20517;-63
2022/05/12 03:42:20;;;;;;;10.93;6.85;;;20.50;1.00;;;;;;5052432;28;20029;-62
2022/05/12 03:44:59;;;;;;;7.32;5.65;;;20.40;1.00;;;;;;5052593;28;20052;-62
2022/05/12 03:47:33;;;;;;;7.28;6.10;;;20.30;1.00;;;;;;5052524;28;20041;-63
2022/05/12 03:50:02;;;;;;;8.68;6.10;;;20.40;1.00;;;;;;5054652;28;20151;-63
2022/05/12 03:52:29;;;;;;;7.00;6.10;;;20.40;1.00;;;;;;5053468;28;20394;-63
2022/05/12 03:54:55;;;;;;;8.57;6.72;;;20.40;1.00;;;;;;5041839;28;20456;-64
2022/05/12 03:57:22;;;;;;;7.63;5.75;;;20.40;1.00;;;;;;5034617;28;20034;-62
2022/05/12 03:59:48;;;;;;;6.55;5.68;;;20.40;1.00;;;;;;5053080;28;20029;-63
2022/05/12 04:02:15;;;;;;;8.25;6.63;;;20.20;1.00;;;;;;5045280;28;20506;-63
2022/05/12 04:04:42;;;;;;;7.43;5.78;;;20.40;1.00;;;;;;5052039;28;20032;-63
2022/05/12 04:07:09;;;;;;;8.75;6.38;;;20.40;1.00;;;;;;5052810;28;20060;-63
2022/05/12 04:09:35;;;;;;;7.07;5.75;;;20.30;1.00;;;;;;5052201;28;20028;-63
2022/05/12 04:12:00;;;;;;;7.47;5.72;;;20.30;1.00;;;;;;5053346;28;20025;-63
2022/05/12 04:14:26;;;;;;;8.80;6.30;;;20.40;1.00;;;;;;5052756;28;20033;-63
2022/05/12 04:16:52;;;;;;;6.63;6.00;;;20.20;1.00;;;;;;5052858;28;20025;-63
2022/05/12 04:19:17;;;;;;;6.22;5.40;;;20.30;1.00;;;;;;5052836;28;20394;-63
2022/05/12 04:21:43;;;;;;;9.95;6.28;;;20.30;1.00;;;;;;5052766;28;20066;-63
2022/05/12 04:24:09;;;;;;;8.80;6.05;;;20.30;1.00;;;;;;5053872;28;20029;-63
2022/05/12 04:26:37;;;;;;;7.53;6.60;;;20.30;1.00;;;;;;5052929;28;20051;-64
2022/05/12 04:29:04;;;;;;;9.05;6.53;;;20.20;1.00;;;;;;5053712;28;20021;-63
2022/05/12 04:31:30;;;;;;;8.88;7.78;;;20.30;1.00;;;;;;5052076;28;20036;-63
2022/05/12 04:36:40;;;;;;;13.30;7.82;;;20.10;1.00;;;;;;5036820;28;20351;-64
2022/05/12 04:39:06;;;;;;;11.40;7.55;;;20.00;1.00;;;;;;5052914;28;20032;-63
2022/05/12 04:41:32;;;;;;;11.13;7.43;;;20.00;1.00;;;;;;5052909;28;20041;-63
2022/05/12 04:44:01;;;;;;;11.48;8.43;;;20.10;1.00;;;;;;5053589;28;20029;-63
2022/05/12 04:46:28;;;;;;;15.40;9.15;;;20.10;1.00;;;;;;5052523;28;20570;-63
2022/05/12 04:48:54;;;;;;;12.48;8.57;;;20.20;1.00;;;;;;5052994;28;20033;-63
2022/05/12 04:51:20;;;;;;;10.07;8.95;;;20.30;1.00;;;;;;5052851;28;20477;-63
2022/05/12 04:53:47;;;;;;;10.48;8.07;;;20.10;1.00;;;;;;5053025;28;20092;-63
2022/05/12 04:56:13;;;;;;;11.07;8.60;;;20.10;1.00;;;;;;5053703;28;20063;-63
2022/05/12 04:58:39;;;;;;;12.48;8.85;;;20.10;1.00;;;;;;5051782;28;20056;-64
2022/05/12 05:01:05;;;;;;;11.23;8.25;;;20.20;1.00;;;;;;5053351;28;20048;-63
2022/05/12 05:03:31;;;;;;;12.23;8.57;;;20.20;1.00;;;;;;5052179;28;20028;-64
2022/05/12 05:05:57;;;;;;;12.75;9.20;;;20.20;1.00;;;;;;5051016;28;20048;-64
2022/05/12 05:08:24;;;;;;;16.00;9.68;;;20.20;1.00;;;;;;5051878;28;20428;-63
2022/05/12 05:10:51;;;;;;;12.77;10.07;;;20.00;1.00;;;;;;5052980;28;20043;-64
2022/05/12 05:13:19;;;;;;;11.32;10.27;;;20.10;1.00;;;;;;5052139;28;20138;-63
2022/05/12 05:15:46;;;;;;;11.02;9.73;;;20.10;1.00;;;;;;5052520;28;20068;-64
2022/05/12 05:18:15;;;;;;;15.60;10.90;;;20.10;1.00;;;;;;5051910;28;20025;-63
2022/05/12 05:20:42;;;;;;;11.02;8.50;;;20.10;1.00;;;;;;5050980;28;20575;-63
2022/05/12 05:23:08;;;;;;;15.30;9.65;;;20.10;1.30;;;;;;5051575;28;20017;-63
2022/05/12 05:25:33;;;;;;;15.73;9.27;;;20.00;1.60;;;;;;5052659;28;20475;-63
2022/05/12 05:27:59;;;;;;;11.35;10.10;;;20.00;2.00;;;;;;5052046;28;20055;-62
2022/05/12 05:30:26;;;;;;;11.45;9.18;;;20.10;1.70;;;;;;5051947;28;20025;-62
2022/05/12 05:32:52;;;;;;;16.27;9.65;;;20.20;1.80;;;;;;5050900;28;20037;-63
2022/05/12 05:35:19;;;;;;;12.77;9.52;;;20.10;1.90;;;;;;5052624;28;20029;-62
2022/05/12 05:37:47;;;;;;;14.15;8.43;;;20.00;2.50;;;;;;5066556;28;20482;-62
2022/05/12 05:40:14;;;;;;;10.15;7.60;;;20.10;2.20;;;;;;5052587;28;20057;-63
2022/05/12 05:42:42;;;;;;;10.05;8.73;;;20.10;2.60;;;;;;5051538;28;20029;-63
2022/05/12 05:45:11;;;;;;;9.52;7.68;;;20.00;2.90;;;;;;5050985;28;20104;-63
2022/05/12 05:47:40;;;;;;;13.20;8.43;;;20.20;2.70;;;;;;5064240;28;20055;-63
2022/05/12 05:50:10;;;;;;;10.35;7.68;;;20.10;2.80;;;;;;5049627;28;20090;-63
2022/05/12 05:56:00;;;;;;;11.02;8.13;;;20.00;4.40;;;;;;5044529;28;20028;-63
2022/05/12 05:58:27;;;;;;;11.60;8.88;;;20.00;3.60;;;;;;5052186;28;20027;-63
2022/05/12 06:00:54;;;;;;;11.43;9.20;;;20.00;3.80;;;;;;5049458;28;20036;-62
2022/05/12 06:03:21;;;;;;;12.18;8.02;;;20.10;3.80;;;;;;5064702;28;20033;-63
2022/05/12 06:05:46;;;;;;;9.75;8.85;;;20.10;4.40;;;;;;5046955;28;20037;-62
2022/05/12 06:08:15;;;;;;;13.85;9.60;;;20.10;4.10;;;;;;5050070;28;20028;-63
2022/05/12 06:10:42;;;;;;;9.40;7.90;;;20.10;4.60;;;;;;5047070;28;20514;-62
2022/05/12 06:13:09;;;;;;;9.75;8.70;;;20.10;5.20;;;;;;5043335;28;20070;-63
2022/05/12 06:15:34;;;;;;;10.80;7.97;;;20.10;4.80;;;;;;5045201;28;20036;-62
2022/05/12 06:18:05;;;;;;;10.98;8.40;;;20.20;4.60;;;;;;5050957;28;20110;-62
2022/05/12 06:20:31;;;;;;;15.32;9.25;;;20.30;4.30;;;;;;5045776;28;20467;-62
2022/05/12 06:22:57;;;;;;;10.05;8.80;;;20.30;4.20;;;;;;5051784;28;20116;-64
2022/05/12 06:25:23;;;;;;;12.40;8.23;;;20.30;4.90;;;;;;5052442;28;20178;-62
2022/05/12 06:27:51;;;;;;;8.77;7.88;;;20.40;4.70;;;;;;5051275;28;20041;-62
2022/05/12 06:33:41;;;;;;;11.63;7.88;;;20.40;5.90;;;;;;5047255;28;20048;-62
2022/05/12 06:36:07;;;;;;;9.55;7.57;;;20.30;5.20;;;;;;5051963;28;20070;-62
2022/05/12 06:38:34;;;;;;;10.23;7.95;;;20.40;5.20;;;;;;5051966;28;20044;-62
2022/05/12 06:41:00;;;;;;;9.27;8.27;;;20.40;5.00;;;;;;5050022;28;20190;-62
2022/05/12 06:43:27;;;;;;;9.38;8.25;;;20.30;5.90;;;;;;5051024;28;20116;-61
2022/05/12 06:45:55;;;;;;;12.20;8.25;;;20.20;5.80;;;;;;5050877;28;20094;-61
2022/05/12 06:48:21;;;;;;;11.50;7.78;;;20.40;5.40;;;;;;5048259;28;20040;-63
2022/05/12 06:50:47;;;;;;;10.25;8.10;;;20.40;5.40;;;;;;5049149;28;20112;-63
2022/05/12 06:53:14;;;;;;;10.18;8.88;;;20.40;5.40;;;;;;5045947;28;20517;-62
2022/05/12 06:55:40;;;;;;;10.07;8.15;;;20.40;5.50;;;;;;5045483;28;20033;-62
2022/05/12 06:58:06;;;;;;;10.75;7.93;;;20.50;5.20;;;;;;5047974;28;20390;-64
2022/05/12 07:00:32;;;;;;;13.05;8.25;;;20.50;5.60;;;;;;5048218;28;20061;-63
2022/05/12 07:02:57;;;;;;;8.77;7.60;;;20.70;5.10;;;;;;5049791;28;20457;-53
2022/05/12 07:05:25;;;;;;;9.90;7.95;;;20.70;4.90;;;;;;5048280;28;20120;-62
2022/05/12 07:07:54;;;;;;;11.52;9.27;;;20.70;4.90;;;;;;5048135;28;20483;-63
2022/05/12 07:10:24;;;;;;;13.43;9.73;;;20.70;5.70;;;;;;5049503;28;20021;-63
2022/05/12 07:12:50;;;;;;;9.73;7.90;;;20.70;4.80;;;;;;5046723;28;20025;-60
2022/05/12 07:15:16;;;;;;;11.27;7.90;;;20.70;4.70;;;;;;5050536;28;20035;-60
2022/05/12 07:17:45;;;;;;;9.32;8.45;;;20.80;4.40;;;;;;5048140;28;20037;-59
2022/05/12 07:28:39;;;;;;;10.70;8.27;;;20.80;4.70;;;;;;5044575;28;20093;-59
2022/05/12 07:31:06;;;;;;;10.45;8.63;;;20.90;4.40;;;;;;5047386;28;20038;-59
2022/05/12 07:33:34;;;;;;;12.23;8.23;;;20.90;4.40;;;;;;5048459;28;20017;-59
2022/05/12 07:36:00;;;;;;;11.00;8.55;;;21.00;4.10;;;;;;5048075;28;20494;-60
2022/05/12 07:38:26;;;;;;;13.43;7.90;;;20.90;4.30;;;;;;5047533;28;20459;-59
2022/05/12 07:40:53;;;;;;;14.77;9.90;;;21.00;4.30;;;;;;5042510;28;20048;-60
2022/05/12 07:43:19;;;;;;;12.07;7.65;;;21.20;3.70;;;;;;5049474;28;20517;-59
2022/05/12 07:45:45;;;;;;;10.75;8.00;;;21.10;4.10;;;;;;5043168;28;20660;-60
2022/05/12 07:48:11;;;;;;;8.23;7.35;;;21.10;4.00;;;;;;5052775;28;20041;-59
2022/05/12 07:50:39;;;;;;;8.40;7.32;;;21.10;3.60;;;;;;5067825;28;20031;-60
2022/05/12 07:53:05;;;;;;;13.02;8.00;;;21.20;3.50;;;;;;5035128;28;20068;-60
2022/05/12 07:55:32;;;;;;;9.88;7.28;;;21.20;3.50;;;;;;5051981;28;20029;-60
2022/05/12 07:57:59;;;;;;;9.65;7.35;;;21.20;3.20;;;;;;5054039;28;20080;-60
2022/05/12 08:00:25;;;;;;;13.93;7.90;;;21.20;3.40;;;;;;5053870;28;20039;-61
2022/05/12 08:02:51;;;;;;;9.07;7.95;;;21.30;3.80;;;;;;5054578;28;20181;-60
2022/05/12 08:05:18;;;;;;;9.93;7.28;;;21.40;3.30;;;;;;5054001;28;20091;-60
2022/05/12 08:07:45;;;;;;;8.95;6.78;;;21.50;3.10;;;;;;5054368;28;20096;-61
2022/05/12 08:10:11;;;;;;;13.45;7.63;;;21.50;3.00;;;;;;5053995;28;20120;-60
2022/05/12 08:12:37;;;;;;;11.52;7.45;;;21.60;2.40;;;;;;5053987;28;20107;-60
2022/05/12 08:15:05;;;;;;;9.07;7.55;;;21.50;2.60;;;;;;5052949;28;20033;-60
2022/05/12 08:17:30;;;;;;;10.02;7.75;;;21.60;2.50;;;;;;5053638;28;20025;-60
2022/05/12 08:19:57;;;;;;;11.20;7.78;;;21.70;2.60;;;;;;5068863;28;20090;-60
2022/05/12 08:22:24;;;;;;;8.40;7.53;;;21.70;2.50;;;;;;5053950;28;20471;-60
2022/05/12 08:24:50;;;;;;;12.13;7.95;;;21.80;2.10;;;;;;5053446;28;20055;-60
2022/05/12 08:27:16;;;;;;;8.75;7.85;;;21.80;2.30;;;;;;5054030;28;20021;-60
2022/05/12 08:29:41;;;;;;;8.93;8.02;;;21.80;2.20;;;;;;5052779;28;20029;-60
2022/05/12 08:32:07;;;;;;;9.10;8.18;;;21.90;1.90;;;;;;5043169;28;20025;-60
2022/05/12 08:34:33;;;;;;;12.07;8.05;;;21.90;1.70;;;;;;5051290;28;20031;-60
2022/05/12 08:36:59;;;;;;;10.45;8.25;;;21.90;1.90;;;;;;5053852;28;20179;-60
2022/05/12 08:39:25;;;;;;;10.00;8.25;;;22.00;1.60;;;;;;5052951;28;20107;-60
2022/05/12 08:41:59;;;;;;;11.25;9.00;;;22.00;1.50;;;;;;5053055;28;20099;-60
2022/05/12 08:44:26;;;;;;;9.90;8.15;;;22.00;1.80;;;;;;5051083;28;20036;-60
2022/05/12 08:46:58;;;;;;;10.32;8.35;;;22.10;1.40;;;;;;5044742;28;20048;-60
2022/05/12 08:49:43;;;;;;;11.63;8.60;;;22.10;1.20;;;;;;5039079;28;20036;-60
2022/05/12 08:52:17;;;;;;;10.48;8.43;;;22.20;1.00;;;;;;5052613;28;20021;-60
2022/05/12 08:54:51;;;;;;;9.25;7.88;;;22.10;1.00;;;;;;5052417;28;20033;-60
2022/05/12 08:57:40;;;;;;;10.60;8.00;;;22.20;1.00;;;;;;5053067;28;20395;-60
2022/05/12 09:00:10;;;;;;;11.32;9.13;;;22.20;1.10;;;;;;5052737;28;20381;-60
2022/05/12 09:02:45;;;;;;;10.63;8.93;;;22.30;1.00;;;;;;5053784;28;20053;-60
2022/05/12 09:05:14;;;;;;;10.10;9.05;;;22.30;1.00;;;;;;5044812;28;20033;-60
2022/05/12 09:07:54;;;;;;;13.02;8.68;;;22.40;1.00;;;;;;5033523;28;20487;-60
2022/05/12 09:10:25;;;;;;;17.95;9.93;;;22.40;1.00;;;;;;5044842;28;20146;-61
2022/05/12 09:12:52;;;;;;;13.30;8.55;;;22.50;1.00;;;;;;5053391;28;20029;-60
2022/05/12 09:15:23;;;;;;;17.42;10.20;;;22.50;1.00;;;;;;5055584;28;20029;-60
2022/05/12 09:17:57;;;;;;;13.18;10.40;;;22.60;1.00;;;;;;5052431;28;20024;-61
2022/05/12 09:20:24;;;;;;;10.68;8.80;;;22.60;1.00;;;;;;5052188;28;20094;-60
2022/05/12 09:22:50;;;;;;;15.27;9.27;;;22.70;1.00;;;;;;5052996;28;20040;-60
2022/05/12 09:25:37;;;;;;;12.98;9.30;;;22.70;1.00;;;;;;5051696;28;20032;-60
2022/05/12 09:28:33;;;;;;;13.40;10.07;;;22.70;1.00;;;;;;5053347;28;20041;-61
2022/05/12 09:31:17;;;;;;;13.82;9.25;;;22.80;1.00;;;;;;5057803;28;20050;-55
2022/05/12 09:40:49;;;;;;;10.32;9.05;;;23.00;1.00;;;;;;5047645;28;20044;-63
2022/05/12 09:43:24;;;;;;;12.60;9.98;;;23.00;1.00;;;;;;5050045;28;20423;-63
2022/05/12 09:46:00;;;;;;;11.27;9.52;;;23.00;1.00;;;;;;5045034;28;20475;-61
2022/05/12 09:48:29;;;;;;;10.90;9.77;;;23.00;1.00;;;;;;5049133;28;20068;-62
2022/05/12 09:51:11;;;;;;;13.27;8.70;;;23.10;1.00;;;;;;5050088;28;20064;-62
2022/05/12 09:53:38;;;;;;;9.13;7.80;;;23.20;1.00;;;;;;5049791;28;20025;-63
2022/05/12 09:56:18;;;;;;;9.60;8.70;;;23.30;1.00;;;;;;5052510;28;20037;-62
2022/05/12 09:59:10;;;;;;;10.77;8.52;;;23.40;1.00;;;;;;5042249;28;20025;-63
2022/05/12 10:01:56;;;;;;;9.98;8.73;;;23.40;1.00;;;;;;5039416;28;20034;-63
2022/05/12 10:10:33;;;;;;;;;;;23.60;1.00;;;;;;5049889;28;20041;-62
2022/05/12 10:13:03;;;;;;;10.02;8.07;;;23.70;1.00;;;;;;5042735;28;20007;-62
2022/05/12 10:15:35;;;;;;;12.15;8.00;;;23.70;1.00;;;;;;5050730;28;20025;-62
2022/05/12 10:18:04;;;;;;;8.10;7.20;;;23.80;1.00;;;;;;5049627;28;20075;-62
2022/05/12 10:20:36;;;;;;;14.80;8.65;;;23.90;1.00;;;;;;5050847;28;20040;-63
2022/05/12 10:23:23;;;;;;;8.25;6.90;;;23.90;1.00;;;;;;5051085;28;20025;-57
2022/05/12 10:26:02;;;;;;;8.82;7.75;;;23.80;1.00;;;;;;5051040;28;20028;-57
2022/05/12 10:28:33;;;;;;;8.07;6.65;;;24.00;1.00;;;;;;5051684;28;20029;-56
2022/05/12 10:31:26;;;;;;;9.27;7.63;;;24.10;1.00;;;;;;5049614;28;20036;-63
2022/05/12 10:34:17;;;;;;;8.48;7.68;;;24.20;1.00;;;;;;5050075;28;20021;-63
2022/05/12 10:36:56;;;;;;;8.85;7.95;;;24.10;1.00;;;;;;5051561;28;20025;-63
2022/05/12 10:39:34;;;;;;;9.15;7.00;;;24.20;1.00;;;;;;5049351;28;20029;-63
2022/05/12 10:42:18;;;;;;;8.27;6.68;;;24.30;1.00;;;;;;5046073;28;20080;-63
2022/05/12 10:44:52;;;;;;;6.90;6.18;;;24.30;1.00;;;;;;5051170;28;20043;-62
2022/05/12 10:47:43;;;;;;;9.27;6.20;;;24.30;1.00;;;;;;5051820;28;20052;-63
2022/05/12 10:50:27;;;;;;;9.48;7.60;;;24.50;1.00;;;;;;5037975;28;20116;-63
2022/05/12 10:52:56;;;;;;;;;;;24.40;1.00;;;;;;5052093;28;20043;-63
2022/05/12 10:55:28;;;;;;;10.63;6.38;;;24.30;1.00;;;;;;5048203;28;19919;-63
2022/05/12 10:58:19;;;;;;;8.02;7.15;;;24.50;1.00;;;;;;5051821;28;20021;-63
2022/05/12 11:01:22;;;;;;;10.82;6.53;;;24.60;1.00;;;;;;5049680;28;20033;-63
2022/05/12 11:03:58;;;;;;;6.40;5.70;;;24.70;1.00;;;;;;5048568;28;20033;-63
2022/05/12 11:06:50;;;;;;;10.52;6.50;;;24.80;1.00;;;;;;5050382;28;20094;-63
2022/05/12 11:09:25;;;;;;;9.93;7.38;;;24.90;1.00;;;;;;5051450;28;20044;-63
2022/05/12 11:11:55;;;;;;;9.80;7.05;;;25.10;1.00;;;;;;5050538;28;20037;-63
2022/05/12 11:14:31;;;;;;;10.77;7.20;;;25.30;1.00;;;;;;5052358;28;20071;-63
2022/05/12 11:17:01;;;;;;;7.57;6.10;;;25.40;1.00;;;;;;5052427;28;20055;-63
2022/05/12 11:19:27;;;;;;;6.47;5.70;;;25.60;1.00;;;;;;5069992;28;20386;-63
2022/05/12 11:22:29;;;;;;;7.30;6.15;;;25.60;1.00;;;;;;5054435;28;20043;-63
2022/05/12 11:25:10;;;;;;;8.27;6.93;;;25.70;1.00;;;;;;5051221;28;20032;-63
2022/05/12 11:27:54;;;;;;;7.90;6.50;;;25.70;1.00;;;;;;5055359;28;20390;-63
2022/05/12 11:30:37;;;;;;;8.70;6.05;;;26.00;1.00;;;;;;5051471;28;20035;-63
2022/05/12 11:33:22;;;;;;;12.57;6.95;;;26.10;1.00;;;;;;5053603;28;20379;-63
2022/05/12 11:35:51;;;;;;;7.95;6.65;;;26.20;1.00;;;;;;5052373;28;20469;-63
2022/05/12 11:38:39;;;;;;;7.75;6.95;;;26.30;1.00;;;;;;5054985;28;20079;-63
2022/05/12 11:41:27;;;;;;;7.88;6.82;;;26.60;1.00;;;;;;5054130;28;20040;-63
2022/05/12 11:44:24;;;;;;;8.32;7.00;;;26.80;1.00;;;;;;5050312;28;20045;-63
2022/05/12 11:47:05;;;;;;;7.18;6.38;;;27.20;1.00;;;;;;5046906;28;20406;-63
2022/05/12 11:49:42;;;;;;;8.45;6.38;;;27.40;1.00;;;;;;5068161;28;20040;-63
2022/05/12 11:52:27;;;;;;;7.68;6.60;;;27.70;1.00;;;;;;5051978;28;20028;-63
2022/05/12 11:54:56;;;;;;;9.50;7.13;;;27.90;1.00;;;;;;5052631;28;20355;-63
2022/05/12 11:57:35;;;;;;;11.73;8.00;;;28.20;1.00;;;;;;5047586;28;20408;-63
2022/05/12 12:00:08;;;;;;;8.77;6.47;;;28.40;1.00;;;;;;5054679;28;20139;-63
2022/05/12 12:02:35;;;;;;;9.48;6.10;;;28.60;1.00;;;;;;5050740;28;20044;-63
2022/05/12 12:05:24;;;;;;;7.82;6.88;;;28.80;1.00;;;;;;5052614;28;20044;-64
2022/05/12 12:07:50;;;;;;;11.27;6.88;;;29.20;1.00;;;;;;5049262;28;20123;-63
2022/05/12 12:10:25;;;;;;;7.88;7.07;;;30.10;1.00;;;;;;5052276;28;20105;-63
2022/05/12 12:12:53;;;;;;;10.75;7.28;;;31.30;1.00;;;;;;5048399;28;20055;-63
2022/05/12 12:15:30;;;;;;;8.70;7.72;;;31.90;1.00;;;;;;5052605;28;20029;-64
2022/05/12 12:17:57;;;;;;;7.78;6.90;;;32.30;1.00;;;;;;5045120;28;20021;-63
2022/05/12 12:20:26;;;;;;;7.75;6.95;;;32.50;1.00;;;;;;5053715;28;20093;-63
2022/05/12 12:22:52;;;;;;;11.23;7.40;;;33.20;1.00;;;;;;5050502;28;20491;-63
2022/05/12 12:26:01;;;;;;;10.57;8.05;;;33.60;1.00;;;;;;5049912;28;20029;-63
2022/05/12 12:28:58;;;;;;;11.10;7.40;;;32.50;1.00;;;;;;5041268;28;20043;-65
2022/05/12 12:31:37;;;;;;;8.88;7.72;;;31.80;1.00;;;;;;5052884;28;20025;-64
2022/05/12 12:34:12;;;;;;;9.00;6.53;;;31.40;1.00;;;;;;5048747;28;20501;-64
2022/05/12 12:36:51;;;;;;;9.27;6.38;;;31.30;1.00;;;;;;5051058;28;20120;-64
2022/05/12 12:40:02;;;;;;;8.27;6.75;;;31.30;1.00;;;;;;5054426;28;20497;-64
2022/05/12 12:42:33;;;;;;;7.45;6.18;;;31.60;1.00;;;;;;5035833;28;20376;-64
2022/05/12 12:45:08;;;;;;;6.82;6.07;;;32.10;1.00;;;;;;5038167;28;20021;-64
2022/05/12 12:47:39;;;;;;;7.93;5.82;;;33.30;1.00;;;;;;5053187;28;20777;-64
2022/05/12 12:50:42;;;;;;;9.63;6.75;;;35.00;1.00;;;;;;5047701;28;20108;-64
2022/05/12 12:56:30;;;;;;;8.73;6.88;;;36.20;1.00;;;;;;5051039;28;20035;-64
2022/05/12 12:56:32;;;;;;;7.57;6.55;;;36.70;1.00;;;;;;5051870;28;20039;-64
2022/05/12 12:59:01;;;;;;;7.20;6.13;;;37.50;1.00;;;;;;5037175;28;20040;-64
2022/05/12 13:01:42;;;;;;;7.15;6.22;;;37.40;1.00;;;;;;5051434;28;20391;-64
2022/05/12 13:04:08;;;;;;;8.05;6.57;;;36.50;1.00;;;;;;5049214;28;20040;-64
2022/05/12 13:06:37;;;;;;;6.65;6.05;;;35.70;1.00;;;;;;5049615;28;20386;-64
2022/05/12 13:09:09;;;;;;;7.32;6.28;;;35.10;1.00;;;;;;5048566;28;20382;-62
2022/05/12 13:11:39;;;;;;;7.22;6.57;;;34.40;1.00;;;;;;5046242;28;20050;-62
2022/05/12 13:14:08;;;;;;;8.05;5.95;;;34.20;1.00;;;;;;5050168;28;20111;-63
2022/05/12 13:16:39;;;;;;;6.57;5.88;;;34.40;1.00;;;;;;5050288;28;20053;-64
2022/05/12 13:19:07;;;;;;;8.98;6.15;;;35.00;1.00;;;;;;5050510;28;20025;-64
2022/05/12 13:21:42;;;;;;;6.75;5.97;;;35.80;1.00;;;;;;5046003;28;20408;-64
2022/05/12 13:24:15;;;;;;;7.78;5.88;;;37.10;1.00;;;;;;5044884;28;20125;-63
2022/05/12 13:26:46;;;;;;;6.78;6.00;;;38.00;1.00;;;;;;5044919;28;20120;-64
2022/05/12 13:29:36;;;;;;;6.57;5.72;;;38.60;1.00;;;;;;5048198;28;20017;-64
2022/05/12 13:32:06;;;;;;;7.28;6.18;;;39.00;1.00;;;;;;5046381;28;20112;-63
2022/05/12 13:34:34;;;;;;;5.75;5.25;;;40.20;1.00;;;;;;5044737;28;20028;-64
2022/05/12 13:37:20;;;;;;;7.22;6.15;;;40.90;1.00;;;;;;5045123;28;20474;-64
2022/05/12 13:39:49;;;;;;;6.05;5.43;;;40.00;1.00;;;;;;5047251;28;20111;-64
2022/05/12 13:42:43;;;;;;;7.95;6.18;;;37.70;1.00;;;;;;5048909;28;20025;-62